createdAt,value
2018-05-13T00:00:40.857Z,0
2018-05-13T00:01:40.628Z,0
2018-05-13T00:02:40.671Z,0
2018-05-13T00:03:41.210Z,0
2018-05-13T00:04:41.223Z,0
2018-05-13T00:05:41.001Z,0
2018-05-13T00:06:41.278Z,0
2018-05-13T00:07:41.107Z,0
2018-05-13T00:08:41.071Z,0
2018-05-13T00:09:41.432Z,0
2018-05-13T00:10:41.138Z,0
2018-05-13T00:11:40.896Z,0
2018-05-13T00:12:41.218Z,0
2018-05-13T00:13:41.455Z,0
2018-05-13T00:14:41.478Z,0
2018-05-13T00:15:41.515Z,0
2018-05-13T00:16:41.538Z,0
2018-05-13T00:17:41.043Z,0
2018-05-13T00:18:41.078Z,0
2018-05-13T00:19:41.351Z,0
2018-05-13T00:20:41.634Z,0
2018-05-13T00:21:41.653Z,0
2018-05-13T00:22:41.218Z,0
2018-05-13T00:23:41.479Z,0
2018-05-13T00:24:41.491Z,0
2018-05-13T00:25:41.514Z,0
2018-05-13T00:26:41.524Z,0
2018-05-13T00:27:41.394Z,0
2018-05-13T00:28:41.082Z,0
2018-05-13T00:29:41.351Z,0
2018-05-13T00:30:41.885Z,0
2018-05-13T00:31:41.910Z,0
2018-05-13T00:32:41.680Z,0
2018-05-13T00:33:41.963Z,0
2018-05-13T00:34:41.956Z,0
2018-05-13T00:35:41.739Z,0
2018-05-13T00:36:41.502Z,0
2018-05-13T00:37:41.578Z,0
2018-05-13T00:38:41.556Z,0
2018-05-13T00:39:41.821Z,0
2018-05-13T00:40:42.138Z,0
2018-05-13T00:41:41.903Z,0
2018-05-13T00:42:42.179Z,0
2018-05-13T00:43:41.937Z,0
2018-05-13T00:44:41.717Z,0
2018-05-13T00:45:41.477Z,0
2018-05-13T00:46:41.759Z,0
2018-05-13T00:47:42.309Z,0
2018-05-13T00:48:42.322Z,0
2018-05-13T00:49:42.341Z,0
2018-05-13T00:50:42.604Z,0
2018-05-13T00:51:41.879Z,0
2018-05-13T00:52:42.461Z,0
2018-05-13T00:53:41.931Z,0
2018-05-13T00:54:42.476Z,0
2018-05-13T00:55:42.498Z,0
2018-05-13T00:56:42.013Z,0
2018-05-13T00:57:42.551Z,0
2018-05-13T00:58:42.566Z,0
2018-05-13T00:59:42.330Z,0
2018-05-13T01:00:41.869Z,0
2018-05-13T01:01:42.655Z,0
2018-05-13T01:02:42.473Z,0
2018-05-13T01:03:42.458Z,0
2018-05-13T01:04:42.727Z,0
2018-05-13T01:05:42.842Z,0
2018-05-13T01:06:42.009Z,0
2018-05-13T01:07:42.865Z,0
2018-05-13T01:08:42.583Z,0
2018-05-13T01:09:42.579Z,0
2018-05-13T01:10:42.613Z,0
2018-05-13T01:11:42.875Z,0
2018-05-13T01:12:42.652Z,0
2018-05-13T01:13:42.939Z,0
2018-05-13T01:14:42.701Z,0
2018-05-13T01:15:42.482Z,0
2018-05-13T01:16:42.497Z,0
2018-05-13T01:17:43.131Z,0
2018-05-13T01:18:43.189Z,0
2018-05-13T01:19:43.096Z,0
2018-05-13T01:20:43.119Z,0
2018-05-13T01:21:43.150Z,0
2018-05-13T01:22:43.219Z,0
2018-05-13T01:23:43.195Z,0
2018-05-13T01:24:42.964Z,0
2018-05-13T01:25:42.999Z,0
2018-05-13T01:26:42.758Z,0
2018-05-13T01:27:43.082Z,0
2018-05-13T01:28:43.064Z,0
2018-05-13T01:29:43.091Z,0
2018-05-13T01:30:43.371Z,0
2018-05-13T01:31:43.392Z,0
2018-05-13T01:32:43.423Z,0
2018-05-13T01:33:43.204Z,0
2018-05-13T01:34:43.479Z,0
2018-05-13T01:35:43.484Z,0
2018-05-13T01:36:43.600Z,0
2018-05-13T01:37:43.586Z,0
2018-05-13T01:38:43.075Z,0
2018-05-13T01:39:43.342Z,0
2018-05-13T01:40:43.379Z,0
2018-05-13T01:41:43.387Z,0
2018-05-13T01:42:43.490Z,0
2018-05-13T01:43:43.443Z,0
2018-05-13T01:44:42.942Z,0
2018-05-13T01:45:43.720Z,0
2018-05-13T01:46:43.237Z,0
2018-05-13T01:47:43.513Z,0
2018-05-13T01:48:43.785Z,0
2018-05-13T01:49:43.813Z,0
2018-05-13T01:50:43.591Z,0
2018-05-13T01:51:43.356Z,0
2018-05-13T01:52:43.958Z,0
2018-05-13T01:53:43.672Z,0
2018-05-13T01:54:43.707Z,0
2018-05-13T01:55:43.473Z,0
2018-05-13T01:56:43.752Z,0
2018-05-13T01:57:43.784Z,0
2018-05-13T01:58:44.052Z,0
2018-05-13T01:59:43.817Z,0
2018-05-13T02:00:44.093Z,0
2018-05-13T02:01:43.870Z,0
2018-05-13T02:02:43.887Z,0
2018-05-13T02:03:43.913Z,0
2018-05-13T02:04:44.197Z,0
2018-05-13T02:05:43.718Z,0
2018-05-13T02:06:44.236Z,0
2018-05-13T02:07:43.818Z,0
2018-05-13T02:08:44.041Z,0
2018-05-13T02:09:44.313Z,0
2018-05-13T02:10:44.094Z,0
2018-05-13T02:11:43.834Z,0
2018-05-13T02:12:43.860Z,0
2018-05-13T02:13:44.400Z,0
2018-05-13T02:14:44.411Z,0
2018-05-13T02:15:44.181Z,0
2018-05-13T02:16:44.458Z,0
2018-05-13T02:17:44.489Z,0
2018-05-13T02:18:44.258Z,0
2018-05-13T02:19:44.543Z,0
2018-05-13T02:20:44.568Z,0
2018-05-13T02:21:44.587Z,0
2018-05-13T02:22:44.653Z,0
2018-05-13T02:23:44.377Z,0
2018-05-13T02:24:44.652Z,0
2018-05-13T02:25:44.680Z,0
2018-05-13T02:26:44.467Z,0
2018-05-13T02:27:44.519Z,0
2018-05-13T02:28:44.255Z,0
2018-05-13T02:29:44.775Z,0
2018-05-13T02:30:44.814Z,0
2018-05-13T02:31:44.600Z,0
2018-05-13T02:32:44.614Z,0
2018-05-13T02:33:44.900Z,0
2018-05-13T02:34:44.411Z,0
2018-05-13T02:35:44.945Z,0
2018-05-13T02:36:44.720Z,0
2018-05-13T02:37:45.057Z,0
2018-05-13T02:38:45.013Z,0
2018-05-13T02:39:45.034Z,0
2018-05-13T02:40:45.061Z,0
2018-05-13T02:41:45.082Z,0
2018-05-13T02:42:45.097Z,0
2018-05-13T02:43:44.900Z,0
2018-05-13T02:44:45.151Z,0
2018-05-13T02:45:45.198Z,0
2018-05-13T02:46:45.199Z,0
2018-05-13T02:47:45.226Z,0
2018-05-13T02:48:45.232Z,0
2018-05-13T02:49:45.009Z,0
2018-05-13T02:50:45.031Z,0
2018-05-13T02:51:45.326Z,0
2018-05-13T02:52:45.396Z,0
2018-05-13T02:53:45.107Z,0
2018-05-13T02:54:45.482Z,0
2018-05-13T02:55:45.444Z,0
2018-05-13T02:56:45.449Z,0
2018-05-13T02:57:44.698Z,0
2018-05-13T02:58:45.217Z,0
2018-05-13T02:59:45.002Z,0
2018-05-13T03:00:45.288Z,0
2018-05-13T03:01:45.291Z,0
2018-05-13T03:02:45.569Z,0
2018-05-13T03:03:45.355Z,0
2018-05-13T03:04:45.371Z,0
2018-05-13T03:05:45.140Z,0
2018-05-13T03:06:45.426Z,0
2018-05-13T03:07:45.747Z,0
2018-05-13T03:08:45.465Z,0
2018-05-13T03:09:45.487Z,0
2018-05-13T03:10:45.279Z,0
2018-05-13T03:11:45.549Z,0
2018-05-13T03:12:45.831Z,0
2018-05-13T03:13:45.597Z,0
2018-05-13T03:14:45.872Z,0
2018-05-13T03:15:45.904Z,0
2018-05-13T03:16:45.655Z,0
2018-05-13T03:17:45.941Z,0
2018-05-13T03:18:45.798Z,0
2018-05-13T03:19:45.230Z,0
2018-05-13T03:20:46.021Z,0
2018-05-13T03:21:45.790Z,0
2018-05-13T03:22:45.855Z,0
2018-05-13T03:23:46.093Z,0
2018-05-13T03:24:46.111Z,0
2018-05-13T03:25:46.137Z,0
2018-05-13T03:26:45.902Z,0
2018-05-13T03:27:45.976Z,0
2018-05-13T03:28:46.211Z,0
2018-05-13T03:29:45.983Z,0
2018-05-13T03:30:46.281Z,0
2018-05-13T03:31:46.026Z,0
2018-05-13T03:32:46.321Z,5
2018-05-13T03:33:46.059Z,5
2018-05-13T03:34:46.330Z,5
2018-05-13T03:35:46.122Z,5
2018-05-13T03:36:46.149Z,5
2018-05-13T03:37:45.922Z,5
2018-05-13T03:38:46.441Z,5
2018-05-13T03:39:46.560Z,5
2018-05-13T03:40:46.508Z,10
2018-05-13T03:41:46.270Z,10
2018-05-13T03:42:46.338Z,10
2018-05-13T03:43:46.055Z,10
2018-05-13T03:44:46.078Z,10
2018-05-13T03:45:46.360Z,15
2018-05-13T03:46:45.869Z,15
2018-05-13T03:47:46.674Z,15
2018-05-13T03:48:46.687Z,15
2018-05-13T03:49:46.476Z,15
2018-05-13T03:50:46.495Z,20
2018-05-13T03:51:46.495Z,20
2018-05-13T03:52:46.854Z,20
2018-05-13T03:53:46.780Z,20
2018-05-13T03:54:46.826Z,25
2018-05-13T03:55:46.825Z,25
2018-05-13T03:56:46.584Z,25
2018-05-13T03:57:46.670Z,25
2018-05-13T03:58:46.899Z,30
2018-05-13T03:59:46.918Z,30
2018-05-13T04:00:46.683Z,30
2018-05-13T04:01:46.983Z,30
2018-05-13T04:02:46.738Z,35
2018-05-13T04:03:46.999Z,35
2018-05-13T04:04:46.768Z,35
2018-05-13T04:05:47.047Z,35
2018-05-13T04:06:47.075Z,40
2018-05-13T04:07:47.096Z,40
2018-05-13T04:08:46.615Z,40
2018-05-13T04:09:46.645Z,45
2018-05-13T04:10:47.008Z,45
2018-05-13T04:11:46.461Z,45
2018-05-13T04:12:47.045Z,50
2018-05-13T04:13:47.021Z,60
2018-05-13T04:14:47.041Z,80
2018-05-13T04:15:46.813Z,75
2018-05-13T04:16:47.089Z,65
2018-05-13T04:17:47.364Z,75
2018-05-13T04:18:47.381Z,90
2018-05-13T04:19:47.156Z,85
2018-05-13T04:20:46.927Z,70
2018-05-13T04:21:47.203Z,60
2018-05-13T04:22:47.574Z,60
2018-05-13T04:23:46.996Z,65
2018-05-13T04:24:47.014Z,65
2018-05-13T04:25:47.560Z,65
2018-05-13T04:26:47.067Z,65
2018-05-13T04:27:47.353Z,70
2018-05-13T04:28:47.320Z,70
2018-05-13T04:29:47.351Z,70
2018-05-13T04:30:47.622Z,70
2018-05-13T04:31:47.650Z,75
2018-05-13T04:32:47.207Z,75
2018-05-13T04:33:47.439Z,75
2018-05-13T04:34:47.214Z,75
2018-05-13T04:35:47.493Z,80
2018-05-13T04:36:47.525Z,80
2018-05-13T04:37:47.573Z,80
2018-05-13T04:38:47.603Z,85
2018-05-13T04:39:47.716Z,85
2018-05-13T04:40:47.900Z,85
2018-05-13T04:41:47.419Z,85
2018-05-13T04:42:47.742Z,85
2018-05-13T04:43:47.212Z,90
2018-05-13T04:44:47.486Z,90
2018-05-13T04:45:47.780Z,90
2018-05-13T04:46:47.800Z,95
2018-05-13T04:47:47.848Z,95
2018-05-13T04:48:48.102Z,95
2018-05-13T04:49:48.112Z,100
2018-05-13T04:50:48.143Z,100
2018-05-13T04:51:48.174Z,100
2018-05-13T04:52:47.697Z,105
2018-05-13T04:53:48.220Z,105
2018-05-13T04:54:47.722Z,105
2018-05-13T04:55:48.257Z,105
2018-05-13T04:56:47.787Z,110
2018-05-13T04:57:49.156Z,110
2018-05-13T04:58:48.071Z,110
2018-05-13T04:59:48.159Z,110
2018-05-13T05:00:48.385Z,115
2018-05-13T05:01:48.407Z,115
2018-05-13T05:02:48.428Z,115
2018-05-13T05:03:48.199Z,120
2018-05-13T05:04:48.217Z,120
2018-05-13T05:05:48.485Z,120
2018-05-13T05:06:47.741Z,120
2018-05-13T05:07:48.269Z,125
2018-05-13T05:08:48.566Z,125
2018-05-13T05:09:48.316Z,125
2018-05-13T05:10:48.339Z,125
2018-05-13T05:11:48.368Z,125
2018-05-13T05:12:48.702Z,125
2018-05-13T05:13:48.663Z,125
2018-05-13T05:14:48.425Z,130
2018-05-13T05:15:48.450Z,130
2018-05-13T05:16:48.472Z,130
2018-05-13T05:17:48.499Z,130
2018-05-13T05:18:48.520Z,135
2018-05-13T05:19:48.546Z,135
2018-05-13T05:20:48.315Z,135
2018-05-13T05:21:48.619Z,135
2018-05-13T05:22:48.895Z,140
2018-05-13T05:23:48.900Z,140
2018-05-13T05:24:48.666Z,140
2018-05-13T05:25:48.708Z,145
2018-05-13T05:26:48.466Z,145
2018-05-13T05:27:48.953Z,145
2018-05-13T05:28:48.787Z,145
2018-05-13T05:29:49.039Z,145
2018-05-13T05:30:49.075Z,155
2018-05-13T05:31:49.082Z,150
2018-05-13T05:32:48.856Z,150
2018-05-13T05:33:48.878Z,150
2018-05-13T05:34:48.665Z,155
2018-05-13T05:35:48.837Z,155
2018-05-13T05:36:48.693Z,155
2018-05-13T05:37:48.721Z,160
2018-05-13T05:38:49.014Z,160
2018-05-13T05:39:49.043Z,160
2018-05-13T05:40:48.787Z,165
2018-05-13T05:41:48.559Z,165
2018-05-13T05:42:48.907Z,165
2018-05-13T05:43:48.861Z,165
2018-05-13T05:44:49.394Z,165
2018-05-13T05:45:48.408Z,165
2018-05-13T05:46:49.435Z,170
2018-05-13T05:47:49.461Z,170
2018-05-13T05:48:49.240Z,170
2018-05-13T05:49:49.263Z,170
2018-05-13T05:50:49.000Z,180
2018-05-13T05:51:49.307Z,175
2018-05-13T05:52:49.309Z,175
2018-05-13T05:53:49.617Z,180
2018-05-13T05:54:49.388Z,180
2018-05-13T05:55:49.680Z,180
2018-05-13T05:56:49.704Z,180
2018-05-13T05:57:49.778Z,185
2018-05-13T05:58:49.820Z,185
2018-05-13T05:59:49.513Z,185
2018-05-13T06:00:49.778Z,190
2018-05-13T06:01:49.557Z,190
2018-05-13T06:02:49.425Z,190
2018-05-13T06:03:49.601Z,195
2018-05-13T06:04:49.399Z,195
2018-05-13T06:05:49.657Z,195
2018-05-13T06:06:49.705Z,195
2018-05-13T06:07:49.946Z,195
2018-05-13T06:08:49.770Z,195
2018-05-13T06:09:49.747Z,195
2018-05-13T06:10:50.027Z,200
2018-05-13T06:11:50.043Z,200
2018-05-13T06:12:49.358Z,200
2018-05-13T06:13:50.134Z,200
2018-05-13T06:14:49.865Z,200
2018-05-13T06:15:49.891Z,200
2018-05-13T06:16:50.128Z,200
2018-05-13T06:17:49.935Z,205
2018-05-13T06:18:50.232Z,205
2018-05-13T06:19:50.262Z,205
2018-05-13T06:20:49.757Z,205
2018-05-13T06:21:50.036Z,205
2018-05-13T06:22:50.323Z,205
2018-05-13T06:23:50.100Z,205
2018-05-13T06:24:50.365Z,210
2018-05-13T06:25:50.135Z,210
2018-05-13T06:26:49.915Z,210
2018-05-13T06:27:49.721Z,210
2018-05-13T06:28:50.229Z,210
2018-05-13T06:29:50.484Z,210
2018-05-13T06:30:50.255Z,215
2018-05-13T06:31:50.701Z,215
2018-05-13T06:32:50.572Z,215
2018-05-13T06:33:50.329Z,215
2018-05-13T06:34:50.089Z,215
2018-05-13T06:35:50.643Z,215
2018-05-13T06:36:50.140Z,215
2018-05-13T06:37:50.415Z,215
2018-05-13T06:38:49.933Z,215
2018-05-13T06:39:50.745Z,215
2018-05-13T06:40:50.502Z,215
2018-05-13T06:41:50.257Z,215
2018-05-13T06:42:50.841Z,220
2018-05-13T06:43:50.306Z,220
2018-05-13T06:44:50.837Z,220
2018-05-13T06:45:50.609Z,220
2018-05-13T06:46:50.893Z,220
2018-05-13T06:47:50.665Z,220
2018-05-13T06:48:50.935Z,220
2018-05-13T06:49:50.964Z,220
2018-05-13T06:50:50.790Z,220
2018-05-13T06:51:51.011Z,220
2018-05-13T06:52:50.629Z,220
2018-05-13T06:53:50.825Z,220
2018-05-13T06:54:51.084Z,220
2018-05-13T06:55:50.855Z,220
2018-05-13T06:56:51.147Z,225
2018-05-13T06:57:51.318Z,225
2018-05-13T06:58:50.426Z,225
2018-05-13T06:59:50.693Z,225
2018-05-13T07:00:50.993Z,225
2018-05-13T07:01:51.256Z,225
2018-05-13T07:02:51.285Z,225
2018-05-13T07:03:51.049Z,225
2018-05-13T07:04:51.475Z,230
2018-05-13T07:05:51.415Z,230
2018-05-13T07:06:51.131Z,230
2018-05-13T07:07:50.904Z,230
2018-05-13T07:08:51.184Z,230
2018-05-13T07:09:51.201Z,230
2018-05-13T07:10:51.223Z,230
2018-05-13T07:11:50.759Z,230
2018-05-13T07:12:51.592Z,230
2018-05-13T07:13:51.323Z,235
2018-05-13T07:14:51.326Z,235
2018-05-13T07:15:51.370Z,235
2018-05-13T07:16:51.116Z,235
2018-05-13T07:17:51.669Z,235
2018-05-13T07:18:51.168Z,235
2018-05-13T07:19:51.451Z,235
2018-05-13T07:20:51.225Z,240
2018-05-13T07:21:51.503Z,240
2018-05-13T07:22:51.536Z,240
2018-05-13T07:23:51.295Z,240
2018-05-13T07:24:51.826Z,240
2018-05-13T07:25:51.601Z,240
2018-05-13T07:26:51.628Z,240
2018-05-13T07:27:51.433Z,245
2018-05-13T07:28:51.923Z,245
2018-05-13T07:29:52.318Z,245
2018-05-13T07:30:52.000Z,245
2018-05-13T07:31:51.747Z,245
2018-05-13T07:32:51.562Z,245
2018-05-13T07:33:51.812Z,250
2018-05-13T07:34:52.065Z,250
2018-05-13T07:35:51.836Z,250
2018-05-13T07:36:52.291Z,250
2018-05-13T07:37:51.965Z,250
2018-05-13T07:38:51.908Z,255
2018-05-13T07:39:52.193Z,255
2018-05-13T07:40:52.226Z,255
2018-05-13T07:41:51.987Z,255
2018-05-13T07:42:52.130Z,255
2018-05-13T07:43:52.121Z,255
2018-05-13T07:44:52.312Z,260
2018-05-13T07:45:52.327Z,260
2018-05-13T07:46:51.849Z,260
2018-05-13T07:47:51.884Z,260
2018-05-13T07:48:52.404Z,260
2018-05-13T07:49:52.188Z,260
2018-05-13T07:50:52.381Z,265
2018-05-13T07:51:52.494Z,265
2018-05-13T07:52:52.255Z,265
2018-05-13T07:53:52.541Z,265
2018-05-13T07:54:52.267Z,265
2018-05-13T07:55:52.103Z,265
2018-05-13T07:56:52.372Z,270
2018-05-13T07:57:52.899Z,270
2018-05-13T07:58:52.425Z,270
2018-05-13T07:59:52.442Z,270
2018-05-13T08:00:52.829Z,270
2018-05-13T08:01:52.754Z,275
2018-05-13T08:02:52.516Z,275
2018-05-13T08:03:52.803Z,275
2018-05-13T08:04:52.335Z,275
2018-05-13T08:05:52.597Z,275
2018-05-13T08:06:52.880Z,275
2018-05-13T08:07:52.649Z,280
2018-05-13T08:08:52.754Z,280
2018-05-13T08:09:52.708Z,280
2018-05-13T08:10:52.971Z,280
2018-05-13T08:11:52.986Z,285
2018-05-13T08:12:52.885Z,285
2018-05-13T08:13:52.786Z,285
2018-05-13T08:14:52.811Z,290
2018-05-13T08:15:53.099Z,290
2018-05-13T08:16:53.123Z,290
2018-05-13T08:17:52.902Z,290
2018-05-13T08:18:52.930Z,290
2018-05-13T08:19:53.197Z,295
2018-05-13T08:20:52.712Z,295
2018-05-13T08:21:52.759Z,295
2018-05-13T08:22:53.300Z,295
2018-05-13T08:23:53.302Z,295
2018-05-13T08:24:53.329Z,295
2018-05-13T08:25:53.361Z,295
2018-05-13T08:26:53.125Z,300
2018-05-13T08:27:53.445Z,300
2018-05-13T08:28:53.451Z,300
2018-05-13T08:29:53.479Z,305
2018-05-13T08:30:53.510Z,305
2018-05-13T08:31:53.529Z,305
2018-05-13T08:32:53.553Z,305
2018-05-13T08:33:53.322Z,310
2018-05-13T08:34:53.096Z,310
2018-05-13T08:35:53.393Z,310
2018-05-13T08:36:53.153Z,310
2018-05-13T08:37:53.547Z,310
2018-05-13T08:38:53.709Z,310
2018-05-13T08:39:53.241Z,315
2018-05-13T08:40:53.504Z,315
2018-05-13T08:41:54.014Z,315
2018-05-13T08:42:53.703Z,315
2018-05-13T08:43:53.587Z,315
2018-05-13T08:44:53.857Z,320
2018-05-13T08:45:53.718Z,320
2018-05-13T08:46:53.922Z,320
2018-05-13T08:47:53.943Z,325
2018-05-13T08:48:53.966Z,325
2018-05-13T08:49:53.995Z,325
2018-05-13T08:50:53.769Z,325
2018-05-13T08:51:53.815Z,325
2018-05-13T08:52:53.679Z,325
2018-05-13T08:53:53.593Z,325
2018-05-13T08:54:53.629Z,330
2018-05-13T08:55:54.152Z,330
2018-05-13T08:56:54.178Z,330
2018-05-13T08:57:54.009Z,335
2018-05-13T08:58:54.244Z,330
2018-05-13T08:59:53.868Z,330
2018-05-13T09:00:54.053Z,335
2018-05-13T09:01:53.818Z,335
2018-05-13T09:02:54.363Z,335
2018-05-13T09:03:54.344Z,340
2018-05-13T09:04:54.131Z,340
2018-05-13T09:05:54.143Z,340
2018-05-13T09:06:54.431Z,340
2018-05-13T09:07:54.468Z,340
2018-05-13T09:08:54.253Z,345
2018-05-13T09:09:54.286Z,345
2018-05-13T09:10:54.327Z,345
2018-05-13T09:11:54.081Z,345
2018-05-13T09:12:54.417Z,350
2018-05-13T09:13:54.381Z,350
2018-05-13T09:14:54.420Z,350
2018-05-13T09:15:54.697Z,350
2018-05-13T09:16:54.240Z,350
2018-05-13T09:17:54.502Z,355
2018-05-13T09:18:54.787Z,355
2018-05-13T09:19:54.845Z,360
2018-05-13T09:20:54.924Z,360
2018-05-13T09:21:54.869Z,365
2018-05-13T09:22:54.402Z,360
2018-05-13T09:23:54.413Z,360
2018-05-13T09:24:54.457Z,360
2018-05-13T09:25:54.971Z,360
2018-05-13T09:26:55.037Z,360
2018-05-13T09:27:55.104Z,365
2018-05-13T09:28:54.803Z,365
2018-05-13T09:29:54.816Z,370
2018-05-13T09:30:54.840Z,365
2018-05-13T09:31:54.617Z,390
2018-05-13T09:32:54.965Z,420
2018-05-13T09:33:55.174Z,430
2018-05-13T09:34:55.212Z,430
2018-05-13T09:35:54.518Z,435
2018-05-13T09:36:55.281Z,435
2018-05-13T09:37:55.034Z,435
2018-05-13T09:38:55.061Z,435
2018-05-13T09:39:55.351Z,440
2018-05-13T09:40:54.877Z,440
2018-05-13T09:41:55.402Z,440
2018-05-13T09:42:55.185Z,440
2018-05-13T09:43:55.457Z,445
2018-05-13T09:44:54.983Z,445
2018-05-13T09:45:55.197Z,445
2018-05-13T09:46:55.325Z,450
2018-05-13T09:47:55.644Z,455
2018-05-13T09:48:55.373Z,455
2018-05-13T09:49:54.894Z,455
2018-05-13T09:50:55.683Z,455
2018-05-13T09:51:55.717Z,455
2018-05-13T09:52:55.593Z,460
2018-05-13T09:53:55.786Z,465
2018-05-13T09:54:55.808Z,470
2018-05-13T09:55:55.847Z,470
2018-05-13T09:56:55.869Z,470
2018-05-13T09:57:55.905Z,470
2018-05-13T09:58:55.419Z,480
2018-05-13T09:59:54.978Z,475
2018-05-13T10:00:55.745Z,475
2018-05-13T10:01:55.773Z,480
2018-05-13T10:02:56.110Z,480
2018-05-13T10:03:55.585Z,480
2018-05-13T10:04:55.862Z,485
2018-05-13T10:05:55.709Z,490
2018-05-13T10:06:56.201Z,495
2018-05-13T10:07:56.219Z,495
2018-05-13T10:08:55.983Z,500
2018-05-13T10:09:56.280Z,500
2018-05-13T10:10:56.307Z,505
2018-05-13T10:11:56.095Z,505
2018-05-13T10:12:56.114Z,510
2018-05-13T10:13:56.403Z,510
2018-05-13T10:14:56.178Z,515
2018-05-13T10:15:56.467Z,515
2018-05-13T10:16:56.502Z,520
2018-05-13T10:17:56.588Z,520
2018-05-13T10:18:56.568Z,525
2018-05-13T10:19:56.601Z,525
2018-05-13T10:20:56.630Z,530
2018-05-13T10:21:56.143Z,535
2018-05-13T10:22:56.421Z,540
2018-05-13T10:23:56.706Z,545
2018-05-13T10:24:56.754Z,545
2018-05-13T10:25:56.774Z,545
2018-05-13T10:26:56.819Z,550
2018-05-13T10:27:56.339Z,555
2018-05-13T10:28:56.629Z,560
2018-05-13T10:29:56.648Z,565
2018-05-13T10:30:56.687Z,570
2018-05-13T10:31:56.704Z,570
2018-05-13T10:32:57.049Z,570
2018-05-13T10:33:57.031Z,575
2018-05-13T10:34:57.064Z,585
2018-05-13T10:35:57.127Z,585
2018-05-13T10:36:57.166Z,585
2018-05-13T10:37:57.235Z,575
2018-05-13T10:38:57.221Z,595
2018-05-13T10:39:57.262Z,610
2018-05-13T10:40:57.289Z,625
2018-05-13T10:41:57.078Z,630
2018-05-13T10:42:57.109Z,620
2018-05-13T10:43:57.394Z,520
2018-05-13T10:44:57.427Z,380
2018-05-13T10:45:57.213Z,375
2018-05-13T10:46:57.240Z,380
2018-05-13T10:47:57.284Z,460
2018-05-13T10:48:57.293Z,635
2018-05-13T10:49:57.329Z,640
2018-05-13T10:50:57.360Z,650
2018-05-13T10:51:57.660Z,665
2018-05-13T10:52:57.512Z,650
2018-05-13T10:53:57.730Z,645
2018-05-13T10:54:57.527Z,640
2018-05-13T10:55:57.548Z,640
2018-05-13T10:56:57.832Z,640
2018-05-13T10:57:58.039Z,630
2018-05-13T10:58:57.651Z,625
2018-05-13T10:59:57.942Z,625
2018-05-13T11:00:57.976Z,635
2018-05-13T11:01:57.755Z,655
2018-05-13T11:02:58.058Z,640
2018-05-13T11:03:57.817Z,580
2018-05-13T11:04:57.940Z,650
2018-05-13T11:05:57.886Z,665
2018-05-13T11:06:57.646Z,650
2018-05-13T11:07:58.228Z,675
2018-05-13T11:08:57.960Z,685
2018-05-13T11:09:58.002Z,695
2018-05-13T11:10:57.788Z,710
2018-05-13T11:11:58.320Z,710
2018-05-13T11:12:58.103Z,730
2018-05-13T11:13:58.387Z,745
2018-05-13T11:14:57.769Z,750
2018-05-13T11:15:58.489Z,765
2018-05-13T11:16:58.521Z,775
2018-05-13T11:17:58.559Z,775
2018-05-13T11:18:58.595Z,790
2018-05-13T11:19:58.717Z,790
2018-05-13T11:20:58.763Z,790
2018-05-13T11:21:58.697Z,780
2018-05-13T11:22:58.283Z,775
2018-05-13T11:23:58.004Z,770
2018-05-13T11:24:58.560Z,775
2018-05-13T11:25:58.839Z,785
2018-05-13T11:26:58.874Z,790
2018-05-13T11:27:58.912Z,790
2018-05-13T11:28:58.957Z,800
2018-05-13T11:29:58.985Z,815
2018-05-13T11:30:58.513Z,820
2018-05-13T11:31:59.055Z,805
2018-05-13T11:32:59.076Z,760
2018-05-13T11:33:59.237Z,510
2018-05-13T11:34:58.895Z,610
2018-05-13T11:35:58.966Z,565
2018-05-13T11:36:58.730Z,700
2018-05-13T11:37:59.070Z,890
2018-05-13T11:38:59.307Z,910
2018-05-13T11:39:59.688Z,905
2018-05-13T11:40:59.142Z,925
2018-05-13T11:41:59.185Z,960
2018-05-13T11:42:59.447Z,980
2018-05-13T11:43:59.494Z,1000
2018-05-13T11:44:59.294Z,690
2018-05-13T11:45:59.559Z,675
2018-05-13T11:46:59.602Z,510
2018-05-13T11:47:59.629Z,445
2018-05-13T11:48:59.680Z,485
2018-05-13T11:49:59.706Z,845
2018-05-13T11:50:59.228Z,550
2018-05-13T11:51:59.773Z,940
2018-05-13T11:52:59.606Z,955
2018-05-13T11:53:59.585Z,970
2018-05-13T11:54:59.628Z,960
2018-05-13T11:55:59.909Z,970
2018-05-13T11:57:00.016Z,980
2018-05-13T11:57:59.987Z,1000
2018-05-13T11:58:59.756Z,1015
2018-05-13T11:59:59.788Z,1015
2018-05-13T12:01:00.074Z,1005
2018-05-13T12:01:59.631Z,980
2018-05-13T12:03:00.152Z,960
2018-05-13T12:03:59.935Z,955
2018-05-13T12:05:00.222Z,935
2018-05-13T12:06:00.259Z,965
2018-05-13T12:06:59.804Z,1005
2018-05-13T12:08:00.145Z,1045
2018-05-13T12:09:00.123Z,1110
2018-05-13T12:10:00.168Z,1250
2018-05-13T12:11:00.458Z,1390
2018-05-13T12:12:00.495Z,1480
2018-05-13T12:13:00.530Z,1555
2018-05-13T12:14:00.322Z,1545
2018-05-13T12:15:00.373Z,1570
2018-05-13T12:15:59.878Z,1620
2018-05-13T12:17:00.178Z,1780
2018-05-13T12:18:00.210Z,1765
2018-05-13T12:19:00.754Z,1615
2018-05-13T12:20:00.790Z,1575
2018-05-13T12:21:00.683Z,1400
2018-05-13T12:22:00.879Z,1645
2018-05-13T12:23:00.956Z,1765
2018-05-13T12:24:00.942Z,1490
2018-05-13T12:25:00.981Z,540
2018-05-13T12:26:00.254Z,570
2018-05-13T12:27:00.545Z,590
2018-05-13T12:28:00.838Z,645
2018-05-13T12:29:01.602Z,785
2018-05-13T12:30:01.158Z,565
2018-05-13T12:31:00.716Z,505
2018-05-13T12:32:01.238Z,600
2018-05-13T12:33:01.016Z,480
2018-05-13T12:34:00.803Z,515
2018-05-13T12:35:01.093Z,490
2018-05-13T12:36:00.621Z,445
2018-05-13T12:37:01.163Z,430
2018-05-13T12:38:01.652Z,410
2018-05-13T12:39:01.255Z,405
2018-05-13T12:40:01.278Z,425
2018-05-13T12:41:01.310Z,530
2018-05-13T12:42:01.592Z,535
2018-05-13T12:43:01.427Z,1985
2018-05-13T12:44:01.663Z,2070
2018-05-13T12:45:01.438Z,2170
2018-05-13T12:46:01.478Z,2190
2018-05-13T12:47:01.503Z,2090
2018-05-13T12:48:01.796Z,2095
2018-05-13T12:49:01.871Z,2010
2018-05-13T12:50:01.683Z,1910
2018-05-13T12:51:01.649Z,1425
2018-05-13T12:52:01.940Z,1980
2018-05-13T12:53:02.014Z,2145
2018-05-13T12:54:01.493Z,2320
2018-05-13T12:55:01.784Z,920
2018-05-13T12:56:01.825Z,640
2018-05-13T12:57:01.866Z,830
2018-05-13T12:58:02.148Z,600
2018-05-13T12:59:02.202Z,530
2018-05-13T13:00:01.980Z,495
2018-05-13T13:01:02.257Z,460
2018-05-13T13:02:01.824Z,445
2018-05-13T13:03:02.078Z,430
2018-05-13T13:04:02.321Z,430
2018-05-13T13:05:02.148Z,435
2018-05-13T13:06:02.448Z,445
2018-05-13T13:07:02.489Z,445
2018-05-13T13:08:01.802Z,440
2018-05-13T13:09:02.066Z,430
2018-05-13T13:10:02.326Z,440
2018-05-13T13:11:02.609Z,505
2018-05-13T13:12:02.651Z,475
2018-05-13T13:13:02.660Z,475
2018-05-13T13:14:02.201Z,490
2018-05-13T13:15:02.497Z,920
2018-05-13T13:16:02.786Z,645
2018-05-13T13:17:02.820Z,495
2018-05-13T13:18:02.589Z,460
2018-05-13T13:19:02.869Z,490
2018-05-13T13:20:02.949Z,1780
2018-05-13T13:21:02.718Z,1655
2018-05-13T13:22:03.032Z,415
2018-05-13T13:23:03.065Z,400
2018-05-13T13:24:02.534Z,415
2018-05-13T13:25:02.320Z,510
2018-05-13T13:26:03.503Z,470
2018-05-13T13:27:02.602Z,455
2018-05-13T13:28:02.893Z,490
2018-05-13T13:29:02.706Z,2050
2018-05-13T13:30:03.308Z,2120
2018-05-13T13:31:03.284Z,2025
2018-05-13T13:32:03.069Z,2075
2018-05-13T13:33:02.592Z,2095
2018-05-13T13:34:02.876Z,2045
2018-05-13T13:35:03.170Z,2070
2018-05-13T13:36:03.461Z,2205
2018-05-13T13:37:02.989Z,2115
2018-05-13T13:38:03.675Z,2065
2018-05-13T13:39:03.300Z,2125
2018-05-13T13:40:03.335Z,2040
2018-05-13T13:41:03.656Z,2040
2018-05-13T13:42:03.422Z,2070
2018-05-13T13:43:03.440Z,2050
2018-05-13T13:44:03.238Z,2080
2018-05-13T13:45:03.779Z,2165
2018-05-13T13:46:03.307Z,2140
2018-05-13T13:47:03.859Z,2080
2018-05-13T13:48:03.626Z,630
2018-05-13T13:49:03.937Z,620
2018-05-13T13:50:03.460Z,635
2018-05-13T13:51:03.737Z,670
2018-05-13T13:52:03.775Z,2410
2018-05-13T13:53:03.603Z,2440
2018-05-13T13:54:04.101Z,2490
2018-05-13T13:55:03.630Z,2545
2018-05-13T13:56:04.185Z,2355
2018-05-13T13:57:03.962Z,2475
2018-05-13T13:58:04.267Z,2295
2018-05-13T13:59:04.037Z,2265
2018-05-13T14:00:03.817Z,2155
2018-05-13T14:01:04.109Z,2095
2018-05-13T14:02:04.153Z,2205